createdAt,value
2022-12-04T00:04:41.643Z,97391.25
2022-12-04T00:09:43.865Z,97392.28
2022-12-04T00:15:23.521Z,97397.41
2022-12-04T00:20:08.770Z,97397.47
2022-12-04T00:25:11.044Z,97390.41
2022-12-04T00:30:13.523Z,97383.28
2022-12-04T00:35:15.731Z,97404.63
2022-12-04T00:40:18.112Z,97381.72
2022-12-04T00:45:20.382Z,97400.63
2022-12-04T00:50:22.777Z,97393.88
2022-12-04T00:55:27.019Z,97382.59
2022-12-04T01:00:29.650Z,97371.47
2022-12-04T01:05:31.880Z,97391.44
2022-12-04T01:10:34.748Z,97368.06
2022-12-04T01:15:45.367Z,97374.97
2022-12-04T01:20:50.515Z,97368.03
2022-12-04T01:25:55.259Z,97379.25
2022-12-04T01:31:05.872Z,97373.16
2022-12-04T01:36:11.209Z,97382.69
2022-12-04T01:41:15.337Z,97385.75
2022-12-04T01:46:17.526Z,97374.53
2022-12-04T01:51:25.497Z,97384.13
2022-12-04T01:56:36.889Z,97386.91
2022-12-04T02:01:47.581Z,97381.72
2022-12-04T02:06:49.966Z,97381.72
2022-12-04T02:12:14.942Z,97381.84
2022-12-04T02:17:33.784Z,97377.41
2022-12-04T02:22:45.188Z,97378.41
2022-12-04T02:28:23.180Z,97371.53
2022-12-04T02:33:42.018Z,97376.69
2022-12-04T02:38:51.472Z,97392.22
2022-12-04T02:44:02.405Z,97385.16
2022-12-04T02:49:11.933Z,97374.06
2022-12-04T02:54:39.520Z,97370.47
2022-12-04T02:59:44.269Z,97370.59
2022-12-04T03:04:50.852Z,97350.88
2022-12-04T03:09:59.757Z,97356.91
2022-12-04T03:15:08.541Z,97374.16
2022-12-04T03:20:14.694Z,97363.75
2022-12-04T03:25:17.069Z,97369.66
2022-12-04T03:30:22.377Z,97370.34
2022-12-04T03:35:30.491Z,97356.56
2022-12-04T03:40:38.844Z,97367.72
2022-12-04T03:45:56.496Z,97375.28
2022-12-04T03:51:16.080Z,97355.66
2022-12-04T03:56:25.081Z,97371.38
2022-12-04T04:01:36.944Z,97365.47
2022-12-04T04:06:48.782Z,97365.50
2022-12-04T04:12:12.062Z,97377.44
2022-12-04T04:17:38.880Z,97370.50
2022-12-04T04:22:59.883Z,97363.53
2022-12-04T04:28:02.204Z,97380.22
2022-12-04T04:33:17.044Z,97380.09
2022-12-04T04:38:28.379Z,97395.50
2022-12-04T04:43:56.811Z,97391.16
2022-12-04T04:49:03.083Z,97384.41
2022-12-04T04:54:09.033Z,97381.75
2022-12-04T04:59:12.341Z,97382.59
2022-12-04T05:04:15.309Z,97390.25
2022-12-04T05:09:17.765Z,97386.91
2022-12-04T05:14:19.833Z,97392.13
2022-12-04T05:19:45.406Z,97387.81
2022-12-04T05:24:48.020Z,97381.84
2022-12-04T05:29:55.559Z,97383.47
2022-12-04T05:34:58.696Z,97388.56
2022-12-04T05:40:00.960Z,97397.28
2022-12-04T05:45:03.617Z,97387.09
2022-12-04T05:50:06.781Z,97398.91
2022-12-04T05:55:08.999Z,97393.53
2022-12-04T06:00:11.876Z,97395.41
2022-12-04T06:05:14.113Z,97403.84
2022-12-04T06:10:16.340Z,97407.44
2022-12-04T06:15:18.637Z,97403.03
2022-12-04T06:20:21.310Z,97403.06
2022-12-04T06:25:23.632Z,97422.84
2022-12-04T06:30:25.716Z,97413.41
2022-12-04T06:35:30.950Z,97410.75
2022-12-04T06:40:33.222Z,97410.00
2022-12-04T06:45:35.380Z,97422.00
2022-12-04T06:50:37.604Z,97405.50
2022-12-04T06:55:39.811Z,97416.94
2022-12-04T07:00:42.175Z,97411.78
2022-12-04T07:05:44.363Z,97421.03
2022-12-04T07:10:46.440Z,97419.09
2022-12-04T07:15:48.772Z,97422.22
2022-12-04T07:20:51.190Z,97408.06
2022-12-04T07:25:53.508Z,97397.94
2022-12-04T07:30:55.808Z,97414.28
2022-12-04T07:35:59.446Z,97418.69
2022-12-04T07:41:04.190Z,97412.75
2022-12-04T07:46:16.181Z,97406.31
2022-12-04T07:51:21.613Z,97396.09
2022-12-04T07:56:24.535Z,97416.16
2022-12-04T08:01:26.706Z,97423.63
2022-12-04T08:06:32.823Z,97427.88
2022-12-04T08:11:35.202Z,97424.13
2022-12-04T08:16:37.589Z,97429.03
2022-12-04T08:21:39.755Z,97422.22
2022-12-04T08:30:03.004Z,97376.69
2022-12-04T08:33:46.666Z,97366.06
2022-12-04T08:38:49.671Z,97419.53
2022-12-04T08:43:55.111Z,97415.25
2022-12-04T08:48:58.142Z,97399.94
2022-12-04T08:54:05.122Z,97398.78
2022-12-04T08:59:07.552Z,97384.19
2022-12-04T09:04:10.313Z,97391.34
2022-12-04T09:09:13.272Z,97371.66
2022-12-04T09:14:15.830Z,97369.63
2022-12-04T09:19:18.098Z,97376.69
2022-12-04T09:24:24.297Z,97355.91
2022-12-04T09:29:27.132Z,97358.47
2022-12-04T09:34:29.749Z,97349.00
2022-12-04T09:39:32.196Z,97329.66
2022-12-04T09:44:40.260Z,97325.78
2022-12-04T09:49:49.345Z,97316.75
2022-12-04T09:54:54.553Z,97326.69
2022-12-04T09:59:58.166Z,97315.69
2022-12-04T10:05:00.755Z,97320.56
2022-12-04T10:10:31.575Z,97309.25
2022-12-04T10:15:57.891Z,97301.16
2022-12-04T10:21:26.244Z,97295.25
2022-12-04T10:26:35.097Z,97271.50
2022-12-04T10:31:40.940Z,97277.25
2022-12-04T10:36:49.548Z,97270.16
2022-12-04T10:42:22.637Z,97265.94
2022-12-04T10:47:26.690Z,97246.44
2022-12-04T10:52:29.340Z,97241.00
2022-12-04T10:57:42.139Z,97237.56
2022-12-04T11:02:45.092Z,97241.88
2022-12-04T11:07:48.823Z,97220.03
2022-12-04T11:13:00.110Z,97226.16
2022-12-04T11:18:15.690Z,97218.09
2022-12-04T11:23:18.708Z,97212.53
2022-12-04T11:28:41.295Z,97212.56
2022-12-04T11:33:52.701Z,97198.31
2022-12-04T11:39:07.633Z,97199.28
2022-12-04T11:44:32.201Z,97199.25
2022-12-04T11:49:35.186Z,97209.47
2022-12-04T11:54:54.747Z,97184.09
2022-12-04T12:00:17.115Z,97186.31
2022-12-04T12:05:22.372Z,97185.31
2022-12-04T12:10:41.547Z,97180.09
2022-12-04T12:16:09.726Z,97174.44
2022-12-04T12:21:30.739Z,97179.28
2022-12-04T12:27:20.928Z,97159.38
2022-12-04T12:32:32.158Z,97170.00
2022-12-04T12:37:34.307Z,97174.41
2022-12-04T12:42:57.873Z,97175.47
2022-12-04T12:48:12.465Z,97167.84
2022-12-04T12:53:22.265Z,97171.38
2022-12-04T12:58:40.322Z,97170.97
2022-12-04T13:03:58.078Z,97168.78
2022-12-04T13:09:12.499Z,97167.28
2022-12-04T13:14:15.114Z,97166.34
2022-12-04T13:19:47.913Z,97181.31
2022-12-04T13:25:08.220Z,97193.53
2022-12-04T13:30:16.801Z,97201.34
2022-12-04T13:35:24.976Z,97201.38
2022-12-04T13:40:33.631Z,97209.66
2022-12-04T13:45:40.664Z,97201.22
2022-12-04T13:50:46.183Z,97190.38
2022-12-04T13:56:06.019Z,97209.59
2022-12-04T14:01:31.457Z,97217.25
2022-12-04T14:06:42.792Z,97226.53
2022-12-04T14:11:46.897Z,97228.28
2022-12-04T14:16:50.112Z,97214.25
2022-12-04T14:21:52.306Z,97234.28
2022-12-04T14:32:24.118Z,97234.75
2022-12-04T14:37:37.755Z,97229.28
2022-12-04T14:42:40.656Z,97237.97
2022-12-04T14:48:04.443Z,97258.25
2022-12-04T14:53:09.564Z,97250.03
2022-12-04T14:58:30.908Z,97229.31
2022-12-04T15:03:37.091Z,97236.53
2022-12-04T15:08:53.263Z,97238.41
2022-12-04T15:14:04.965Z,97233.16
2022-12-04T15:19:18.015Z,97251.41
2022-12-04T15:24:23.488Z,97244.22
2022-12-04T15:29:35.136Z,97237.25
2022-12-04T15:35:09.407Z,97233.03
2022-12-04T15:40:26.023Z,97236.84
2022-12-04T15:45:32.006Z,97241.06
2022-12-04T15:50:36.715Z,97227.50
2022-12-04T15:55:52.274Z,97252.50
2022-12-04T16:00:59.615Z,97261.50
2022-12-04T16:06:09.500Z,97249.69
2022-12-04T16:11:21.745Z,97252.53
2022-12-04T16:16:26.314Z,97258.94
2022-12-04T16:21:38.620Z,97253.72
2022-12-04T16:26:43.659Z,97221.97
2022-12-04T16:31:46.449Z,97256.56
2022-12-04T16:36:54.648Z,97254.19
2022-12-04T16:41:56.943Z,97241.03
2022-12-04T16:46:59.255Z,97265.59
2022-12-04T16:52:01.525Z,97248.06
2022-12-04T16:57:04.252Z,97263.22
2022-12-04T17:02:17.728Z,97271.88
2022-12-04T17:07:20.786Z,97276.72
2022-12-04T17:12:23.476Z,97275.81
2022-12-04T17:17:25.682Z,97268.97
2022-12-04T17:22:28.171Z,97295.53
2022-12-04T17:27:30.427Z,97293.00
2022-12-04T17:32:35.079Z,97311.69
2022-12-04T17:37:38.612Z,97302.97
2022-12-04T17:42:42.152Z,97299.84
2022-12-04T17:47:44.368Z,97321.47
2022-12-04T17:52:46.665Z,97312.50
2022-12-04T17:57:48.766Z,97299.97
2022-12-04T18:02:53.379Z,97326.75
2022-12-04T18:07:56.251Z,97324.28
2022-12-04T18:12:58.514Z,97315.47
2022-12-04T18:18:00.812Z,97321.47
2022-12-04T18:23:02.989Z,97302.47
2022-12-04T18:28:05.374Z,97317.59
2022-12-04T18:33:07.552Z,97318.91
2022-12-04T18:38:11.337Z,97311.19
2022-12-04T18:43:15.562Z,97306.06
2022-12-04T18:48:17.913Z,97306.97
2022-12-04T18:53:20.148Z,97304.94
2022-12-04T18:58:23.169Z,97306.72
2022-12-04T19:03:25.490Z,97307.94
2022-12-04T19:08:32.856Z,97300.16
2022-12-04T19:13:36.525Z,97304.03
2022-12-04T19:18:38.596Z,97311.41
2022-12-04T19:23:43.935Z,97313.34
2022-12-04T19:28:46.636Z,97305.59
2022-12-04T19:33:48.954Z,97311.47
2022-12-04T19:38:51.420Z,97309.19
2022-12-04T19:44:32.448Z,97313.66
2022-12-04T19:49:28.800Z,97279.41
2022-12-04T19:54:31.130Z,97323.00
2022-12-04T19:59:36.972Z,97308.72
2022-12-04T20:04:48.826Z,97315.69
2022-12-04T20:09:52.587Z,97315.56
2022-12-04T20:14:54.973Z,97293.56
2022-12-04T20:19:57.355Z,97301.06
2022-12-04T20:24:59.715Z,97303.66
2022-12-04T20:30:02.075Z,97304.88
2022-12-04T20:35:04.669Z,97313.69
2022-12-04T20:40:07.821Z,97285.28
2022-12-04T20:45:11.328Z,97290.75
2022-12-04T20:50:14.355Z,97304.31
2022-12-04T20:55:16.860Z,97306.03
2022-12-04T21:00:19.194Z,97297.63
2022-12-04T21:05:21.400Z,97302.19
2022-12-04T21:10:23.476Z,97314.25
2022-12-04T21:15:44.293Z,97309.00
2022-12-04T21:20:46.653Z,97303.31
2022-12-04T21:25:48.897Z,97312.75
2022-12-04T21:30:51.147Z,97312.81
2022-12-04T21:35:53.386Z,97303.38
2022-12-04T21:40:55.901Z,97297.22
2022-12-04T21:46:09.238Z,97287.63
2022-12-04T21:51:26.891Z,97307.63
2022-12-04T21:56:34.606Z,97305.22
2022-12-04T22:01:37.697Z,97298.16
2022-12-04T22:06:39.881Z,97292.13
2022-12-04T22:11:42.578Z,97293.06
2022-12-04T22:16:44.857Z,97293.81
2022-12-04T22:21:47.151Z,97295.69
2022-12-04T22:26:49.289Z,97293.09
2022-12-04T22:31:51.598Z,97292.19
2022-12-04T22:36:53.853Z,97284.38
2022-12-04T22:41:56.591Z,97294.59
2022-12-04T22:46:59.088Z,97288.69
2022-12-04T22:52:01.234Z,97289.53
2022-12-04T22:57:03.406Z,97294.66
2022-12-04T23:02:05.649Z,97295.56
2022-12-04T23:07:07.919Z,97300.78
2022-12-04T23:12:10.467Z,97300.50
2022-12-04T23:17:12.746Z,97309.31
2022-12-04T23:22:14.824Z,97304.31
2022-12-04T23:27:16.976Z,97312.03
2022-12-04T23:32:19.415Z,97304.28
2022-12-04T23:37:21.612Z,97305.06
2022-12-04T23:42:23.716Z,97305.06
2022-12-04T23:47:26.310Z,97299.75
2022-12-04T23:52:28.463Z,97299.66
2022-12-04T23:57:30.600Z,97292.50
